sensor_id;sensor_type;location;lat;lon;timestamp;P1;durP1;ratioP1;P2;durP2;ratioP2
78365;SDS011;67641;59.864;30.464;2023-08-08T00:01:17;9.20;;;3.55;;
78365;SDS011;67641;59.864;30.464;2023-08-08T00:03:44;10.57;;;3.80;;
78365;SDS011;67641;59.864;30.464;2023-08-08T00:07:59;6.70;;;3.17;;
78365;SDS011;67641;59.864;30.464;2023-08-08T00:10:25;8.88;;;3.60;;
78365;SDS011;67641;59.864;30.464;2023-08-08T00:12:52;11.98;;;4.03;;
78365;SDS011;67641;59.864;30.464;2023-08-08T00:15:18;9.25;;;2.90;;
78365;SDS011;67641;59.864;30.464;2023-08-08T00:17:45;9.30;;;3.00;;
78365;SDS011;67641;59.864;30.464;2023-08-08T00:20:11;10.32;;;3.40;;
78365;SDS011;67641;59.864;30.464;2023-08-08T00:22:38;8.95;;;3.40;;
78365;SDS011;67641;59.864;30.464;2023-08-08T00:25:04;9.57;;;3.42;;
78365;SDS011;67641;59.864;30.464;2023-08-08T00:30:04;11.57;;;3.72;;
78365;SDS011;67641;59.864;30.464;2023-08-08T00:57:15;6.97;;;3.35;;
78365;SDS011;67641;59.864;30.464;2023-08-08T00:59:43;10.25;;;3.50;;
78365;SDS011;67641;59.864;30.464;2023-08-08T01:02:10;9.30;;;3.28;;
78365;SDS011;67641;59.864;30.464;2023-08-08T01:04:37;6.80;;;3.55;;
78365;SDS011;67641;59.864;30.464;2023-08-08T01:07:17;11.05;;;3.40;;
78365;SDS011;67641;59.864;30.464;2023-08-08T01:10:39;8.20;;;3.42;;
78365;SDS011;67641;59.864;30.464;2023-08-08T01:13:18;9.48;;;3.70;;
78365;SDS011;67641;59.864;30.464;2023-08-08T01:15:48;11.45;;;3.05;;
78365;SDS011;67641;59.864;30.464;2023-08-08T01:18:16;6.70;;;3.65;;
78365;SDS011;67641;59.864;30.464;2023-08-08T01:20:44;10.30;;;3.45;;
78365;SDS011;67641;59.864;30.464;2023-08-08T01:23:18;11.52;;;3.70;;
78365;SDS011;67641;59.864;30.464;2023-08-08T01:25:55;12.10;;;3.70;;
78365;SDS011;67641;59.864;30.464;2023-08-08T01:28:23;9.93;;;3.70;;
78365;SDS011;67641;59.864;30.464;2023-08-08T01:32:01;8.63;;;2.90;;
78365;SDS011;67641;59.864;30.464;2023-08-08T01:34:27;8.90;;;2.95;;
78365;SDS011;67641;59.864;30.464;2023-08-08T01:36:59;7.05;;;2.90;;
78365;SDS011;67641;59.864;30.464;2023-08-08T01:39:39;7.47;;;3.10;;
78365;SDS011;67641;59.864;30.464;2023-08-08T01:42:08;10.30;;;3.25;;
78365;SDS011;67641;59.864;30.464;2023-08-08T01:44:35;10.77;;;3.25;;
78365;SDS011;67641;59.864;30.464;2023-08-08T01:47:03;8.75;;;3.10;;
78365;SDS011;67641;59.864;30.464;2023-08-08T01:49:30;9.25;;;2.97;;
78365;SDS011;67641;59.864;30.464;2023-08-08T02:16:15;7.38;;;3.00;;
78365;SDS011;67641;59.864;30.464;2023-08-08T02:18:42;8.70;;;2.80;;
78365;SDS011;67641;59.864;30.464;2023-08-08T02:21:08;8.05;;;2.90;;
78365;SDS011;67641;59.864;30.464;2023-08-08T02:23:35;5.60;;;2.70;;
78365;SDS011;67641;59.864;30.464;2023-08-08T02:26:02;8.23;;;3.22;;
78365;SDS011;67641;59.864;30.464;2023-08-08T02:28:29;9.38;;;3.35;;
78365;SDS011;67641;59.864;30.464;2023-08-08T02:30:56;11.63;;;3.47;;
78365;SDS011;67641;59.864;30.464;2023-08-08T02:36:00;11.48;;;3.38;;
78365;SDS011;67641;59.864;30.464;2023-08-08T02:38:27;9.02;;;3.50;;
78365;SDS011;67641;59.864;30.464;2023-08-08T02:40:53;11.00;;;3.50;;
78365;SDS011;67641;59.864;30.464;2023-08-08T02:43:20;8.50;;;3.20;;
78365;SDS011;67641;59.864;30.464;2023-08-08T02:45:46;7.10;;;3.95;;
78365;SDS011;67641;59.864;30.464;2023-08-08T02:48:13;11.50;;;3.28;;
78365;SDS011;67641;59.864;30.464;2023-08-08T02:50:39;7.45;;;3.42;;
78365;SDS011;67641;59.864;30.464;2023-08-08T02:53:06;7.53;;;3.40;;
78365;SDS011;67641;59.864;30.464;2023-08-08T02:58:06;11.80;;;3.58;;
78365;SDS011;67641;59.864;30.464;2023-08-08T03:00:32;12.18;;;3.60;;
78365;SDS011;67641;59.864;30.464;2023-08-08T03:02:59;8.25;;;2.97;;
78365;SDS011;67641;59.864;30.464;2023-08-08T03:05:25;7.25;;;2.60;;
78365;SDS011;67641;59.864;30.464;2023-08-08T03:07:52;9.88;;;3.15;;
78365;SDS011;67641;59.864;30.464;2023-08-08T03:54:58;6.57;;;2.53;;
78365;SDS011;67641;59.864;30.464;2023-08-08T03:58:15;9.10;;;3.08;;
78365;SDS011;67641;59.864;30.464;2023-08-08T04:00:42;7.22;;;2.65;;
78365;SDS011;67641;59.864;30.464;2023-08-08T04:03:13;7.90;;;2.75;;
78365;SDS011;67641;59.864;30.464;2023-08-08T04:05:45;7.00;;;2.40;;
78365;SDS011;67641;59.864;30.464;2023-08-08T04:08:14;6.55;;;2.08;;
78365;SDS011;67641;59.864;30.464;2023-08-08T04:10:43;14.63;;;2.45;;
78365;SDS011;67641;59.864;30.464;2023-08-08T04:13:12;7.22;;;2.03;;
78365;SDS011;67641;59.864;30.464;2023-08-08T04:15:39;7.07;;;2.55;;
78365;SDS011;67641;59.864;30.464;2023-08-08T04:19:51;9.77;;;2.53;;
78365;SDS011;67641;59.864;30.464;2023-08-08T04:44:26;8.70;;;2.40;;
78365;SDS011;67641;59.864;30.464;2023-08-08T04:46:53;7.80;;;2.20;;
78365;SDS011;67641;59.864;30.464;2023-08-08T04:49:20;9.10;;;2.28;;
78365;SDS011;67641;59.864;30.464;2023-08-08T04:51:46;7.38;;;2.08;;
78365;SDS011;67641;59.864;30.464;2023-08-08T04:54:13;7.07;;;2.22;;
78365;SDS011;67641;59.864;30.464;2023-08-08T04:56:39;6.95;;;1.90;;
78365;SDS011;67641;59.864;30.464;2023-08-08T05:00:56;8.48;;;2.45;;
78365;SDS011;67641;59.864;30.464;2023-08-08T05:03:23;10.07;;;2.60;;
78365;SDS011;67641;59.864;30.464;2023-08-08T05:05:49;11.98;;;2.35;;
78365;SDS011;67641;59.864;30.464;2023-08-08T05:08:16;10.23;;;2.50;;
78365;SDS011;67641;59.864;30.464;2023-08-08T05:10:43;11.45;;;3.17;;
78365;SDS011;67641;59.864;30.464;2023-08-08T05:13:10;9.75;;;3.10;;
78365;SDS011;67641;59.864;30.464;2023-08-08T05:15:36;13.98;;;3.42;;
78365;SDS011;67641;59.864;30.464;2023-08-08T05:18:03;13.48;;;2.97;;
78365;SDS011;67641;59.864;30.464;2023-08-08T05:22:18;15.65;;;3.15;;
78365;SDS011;67641;59.864;30.464;2023-08-08T05:24:44;11.07;;;3.03;;
78365;SDS011;67641;59.864;30.464;2023-08-08T05:27:11;11.63;;;2.92;;
78365;SDS011;67641;59.864;30.464;2023-08-08T05:29:38;15.80;;;3.58;;
78365;SDS011;67641;59.864;30.464;2023-08-08T05:32:05;9.63;;;3.35;;
78365;SDS011;67641;59.864;30.464;2023-08-08T05:34:33;13.05;;;3.88;;
78365;SDS011;67641;59.864;30.464;2023-08-08T05:37:00;11.93;;;3.75;;
78365;SDS011;67641;59.864;30.464;2023-08-08T05:39:27;8.85;;;3.50;;
78365;SDS011;67641;59.864;30.464;2023-08-08T06:06:42;12.05;;;3.50;;
78365;SDS011;67641;59.864;30.464;2023-08-08T06:09:09;13.60;;;3.20;;
78365;SDS011;67641;59.864;30.464;2023-08-08T06:11:36;10.00;;;3.33;;
78365;SDS011;67641;59.864;30.464;2023-08-08T06:14:03;14.52;;;4.00;;
78365;SDS011;67641;59.864;30.464;2023-08-08T06:16:29;14.27;;;4.22;;
78365;SDS011;67641;59.864;30.464;2023-08-08T06:18:56;11.10;;;3.90;;
78365;SDS011;67641;59.864;30.464;2023-08-08T06:21:22;10.35;;;3.40;;
78365;SDS011;67641;59.864;30.464;2023-08-08T06:23:49;16.15;;;4.20;;
78365;SDS011;67641;59.864;30.464;2023-08-08T06:28:17;12.57;;;3.95;;
78365;SDS011;67641;59.864;30.464;2023-08-08T06:30:45;12.70;;;4.10;;
78365;SDS011;67641;59.864;30.464;2023-08-08T06:33:12;9.68;;;3.63;;
78365;SDS011;67641;59.864;30.464;2023-08-08T06:35:41;9.48;;;4.03;;
78365;SDS011;67641;59.864;30.464;2023-08-08T06:38:08;10.52;;;3.70;;
78365;SDS011;67641;59.864;30.464;2023-08-08T06:40:35;9.90;;;3.50;;
78365;SDS011;67641;59.864;30.464;2023-08-08T06:43:03;12.13;;;3.70;;
78365;SDS011;67641;59.864;30.464;2023-08-08T06:45:31;13.32;;;4.80;;
78365;SDS011;67641;59.864;30.464;2023-08-08T06:49:41;12.40;;;4.05;;
78365;SDS011;67641;59.864;30.464;2023-08-08T06:52:08;17.20;;;4.35;;
78365;SDS011;67641;59.864;30.464;2023-08-08T06:54:35;15.90;;;4.97;;
78365;SDS011;67641;59.864;30.464;2023-08-08T06:57:02;12.30;;;4.50;;
78365;SDS011;67641;59.864;30.464;2023-08-08T06:59:30;13.13;;;4.50;;
78365;SDS011;67641;59.864;30.464;2023-08-08T07:01:57;12.10;;;4.82;;
78365;SDS011;67641;59.864;30.464;2023-08-08T07:26:05;14.73;;;4.53;;
78365;SDS011;67641;59.864;30.464;2023-08-08T07:28:31;10.30;;;4.53;;
78365;SDS011;67641;59.864;30.464;2023-08-08T07:32:48;15.38;;;4.95;;
78365;SDS011;67641;59.864;30.464;2023-08-08T07:35:16;11.07;;;4.53;;
78365;SDS011;67641;59.864;30.464;2023-08-08T07:37:43;14.38;;;4.40;;
78365;SDS011;67641;59.864;30.464;2023-08-08T07:40:17;8.25;;;3.95;;
78365;SDS011;67641;59.864;30.464;2023-08-08T07:42:44;11.98;;;4.32;;
78365;SDS011;67641;59.864;30.464;2023-08-08T07:45:11;13.07;;;4.60;;
78365;SDS011;67641;59.864;30.464;2023-08-08T07:47:38;14.27;;;4.63;;
78365;SDS011;67641;59.864;30.464;2023-08-08T07:50:06;11.02;;;4.10;;
78365;SDS011;67641;59.864;30.464;2023-08-08T07:53:56;15.52;;;4.38;;
78365;SDS011;67641;59.864;30.464;2023-08-08T07:56:22;17.60;;;4.15;;
78365;SDS011;67641;59.864;30.464;2023-08-08T07:58:49;10.77;;;4.13;;
78365;SDS011;67641;59.864;30.464;2023-08-08T08:01:16;9.55;;;3.50;;
78365;SDS011;67641;59.864;30.464;2023-08-08T08:03:47;14.93;;;3.90;;
78365;SDS011;67641;59.864;30.464;2023-08-08T08:06:13;10.95;;;3.90;;
78365;SDS011;67641;59.864;30.464;2023-08-08T08:08:40;9.07;;;3.25;;
78365;SDS011;67641;59.864;30.464;2023-08-08T08:11:06;13.18;;;3.85;;
78365;SDS011;67641;59.864;30.464;2023-08-08T08:15:46;15.65;;;3.70;;
78365;SDS011;67641;59.864;30.464;2023-08-08T08:18:13;11.48;;;4.50;;
78365;SDS011;67641;59.864;30.464;2023-08-08T08:20:43;14.32;;;4.38;;
78365;SDS011;67641;59.864;30.464;2023-08-08T08:45:04;11.25;;;3.40;;
78365;SDS011;67641;59.864;30.464;2023-08-08T08:47:32;7.10;;;2.83;;
78365;SDS011;67641;59.864;30.464;2023-08-08T08:50:01;10.40;;;3.13;;
78365;SDS011;67641;59.864;30.464;2023-08-08T08:52:30;11.50;;;3.55;;
78365;SDS011;67641;59.864;30.464;2023-08-08T08:57:53;9.80;;;2.75;;
78365;SDS011;67641;59.864;30.464;2023-08-08T09:00:20;11.52;;;2.90;;
78365;SDS011;67641;59.864;30.464;2023-08-08T09:02:48;11.43;;;2.70;;
78365;SDS011;67641;59.864;30.464;2023-08-08T09:05:18;8.48;;;2.60;;
78365;SDS011;67641;59.864;30.464;2023-08-08T09:07:48;8.40;;;3.08;;
78365;SDS011;67641;59.864;30.464;2023-08-08T09:10:17;10.25;;;2.67;;
78365;SDS011;67641;59.864;30.464;2023-08-08T09:12:45;14.15;;;2.78;;
78365;SDS011;67641;59.864;30.464;2023-08-08T09:15:12;11.88;;;3.28;;
78365;SDS011;67641;59.864;30.464;2023-08-08T09:20:14;9.65;;;2.67;;
78365;SDS011;67641;59.864;30.464;2023-08-08T09:22:42;10.00;;;2.55;;
78365;SDS011;67641;59.864;30.464;2023-08-08T09:25:08;7.50;;;2.70;;
78365;SDS011;67641;59.864;30.464;2023-08-08T09:27:35;12.15;;;2.83;;
78365;SDS011;67641;59.864;30.464;2023-08-08T09:30:02;8.10;;;3.00;;
78365;SDS011;67641;59.864;30.464;2023-08-08T09:32:30;6.70;;;2.50;;
78365;SDS011;67641;59.864;30.464;2023-08-08T09:34:58;7.45;;;3.05;;
78365;SDS011;67641;59.864;30.464;2023-08-08T09:37:27;10.30;;;2.60;;
78365;SDS011;67641;59.864;30.464;2023-08-08T10:04:45;11.23;;;3.40;;
78365;SDS011;67641;59.864;30.464;2023-08-08T10:07:13;8.07;;;3.35;;
78365;SDS011;67641;59.864;30.464;2023-08-08T10:09:41;10.40;;;3.80;;
78365;SDS011;67641;59.864;30.464;2023-08-08T10:12:08;9.85;;;3.00;;
78365;SDS011;67641;59.864;30.464;2023-08-08T10:14:41;11.40;;;3.50;;
78365;SDS011;67641;59.864;30.464;2023-08-08T10:17:12;11.32;;;3.08;;
78365;SDS011;67641;59.864;30.464;2023-08-08T10:19:40;7.65;;;3.15;;
78365;SDS011;67641;59.864;30.464;2023-08-08T10:24:00;8.65;;;2.72;;
78365;SDS011;67641;59.864;30.464;2023-08-08T10:29:53;7.05;;;2.58;;
78365;SDS011;67641;59.864;30.464;2023-08-08T10:32:24;11.45;;;3.05;;
78365;SDS011;67641;59.864;30.464;2023-08-08T10:34:55;10.60;;;2.75;;
78365;SDS011;67641;59.864;30.464;2023-08-08T10:37:23;8.90;;;2.47;;
78365;SDS011;67641;59.864;30.464;2023-08-08T10:39:59;11.63;;;2.92;;
78365;SDS011;67641;59.864;30.464;2023-08-08T10:45:11;7.53;;;2.53;;
78365;SDS011;67641;59.864;30.464;2023-08-08T10:47:41;9.73;;;2.80;;
78365;SDS011;67641;59.864;30.464;2023-08-08T10:50:16;9.77;;;3.03;;
78365;SDS011;67641;59.864;30.464;2023-08-08T10:55:22;10.73;;;2.63;;
78365;SDS011;67641;59.864;30.464;2023-08-08T10:57:55;9.77;;;2.45;;
78365;SDS011;67641;59.864;30.464;2023-08-08T11:22:59;8.98;;;2.45;;
78365;SDS011;67641;59.864;30.464;2023-08-08T11:25:46;5.82;;;2.50;;
78365;SDS011;67641;59.864;30.464;2023-08-08T11:30:54;7.43;;;2.20;;
78365;SDS011;67641;59.864;30.464;2023-08-08T11:33:23;6.20;;;2.15;;
78365;SDS011;67641;59.864;30.464;2023-08-08T11:35:51;6.60;;;1.98;;
78365;SDS011;67641;59.864;30.464;2023-08-08T11:38:18;8.63;;;2.30;;
78365;SDS011;67641;59.864;30.464;2023-08-08T11:40:45;7.78;;;2.58;;
78365;SDS011;67641;59.864;30.464;2023-08-08T11:43:20;10.18;;;2.38;;
78365;SDS011;67641;59.864;30.464;2023-08-08T11:45:48;6.18;;;2.17;;
78365;SDS011;67641;59.864;30.464;2023-08-08T11:53:18;18.77;;;2.38;;
78365;SDS011;67641;59.864;30.464;2023-08-08T11:55:46;8.85;;;2.22;;
78365;SDS011;67641;59.864;30.464;2023-08-08T11:58:13;7.20;;;2.35;;
78365;SDS011;67641;59.864;30.464;2023-08-08T12:00:43;7.63;;;2.10;;
78365;SDS011;67641;59.864;30.464;2023-08-08T12:03:12;6.53;;;2.08;;
78365;SDS011;67641;59.864;30.464;2023-08-08T12:05:40;9.60;;;2.45;;
78365;SDS011;67641;59.864;30.464;2023-08-08T12:08:07;8.05;;;2.10;;
78365;SDS011;67641;59.864;30.464;2023-08-08T12:13:26;7.63;;;2.45;;
78365;SDS011;67641;59.864;30.464;2023-08-08T12:15:54;6.22;;;1.95;;
78365;SDS011;67641;59.864;30.464;2023-08-08T12:18:21;5.00;;;1.92;;
78365;SDS011;67641;59.864;30.464;2023-08-08T12:54:25;7.95;;;2.10;;
78365;SDS011;67641;59.864;30.464;2023-08-08T12:56:52;7.38;;;2.40;;
78365;SDS011;67641;59.864;30.464;2023-08-08T12:59:19;8.75;;;2.08;;
78365;SDS011;67641;59.864;30.464;2023-08-08T13:01:48;5.85;;;2.00;;
78365;SDS011;67641;59.864;30.464;2023-08-08T13:04:14;8.13;;;2.40;;
78365;SDS011;67641;59.864;30.464;2023-08-08T13:08:31;8.30;;;2.00;;
78365;SDS011;67641;59.864;30.464;2023-08-08T13:10:58;9.73;;;1.88;;
78365;SDS011;67641;59.864;30.464;2023-08-08T13:13:25;8.20;;;1.85;;
78365;SDS011;67641;59.864;30.464;2023-08-08T13:15:52;7.63;;;1.80;;
78365;SDS011;67641;59.864;30.464;2023-08-08T13:48:03;10.20;;;2.20;;
78365;SDS011;67641;59.864;30.464;2023-08-08T13:50:30;7.18;;;1.70;;
78365;SDS011;67641;59.864;30.464;2023-08-08T14:15:06;7.03;;;1.40;;
78365;SDS011;67641;59.864;30.464;2023-08-08T14:43:41;8.57;;;1.73;;
78365;SDS011;67641;59.864;30.464;2023-08-08T14:49:16;7.22;;;1.80;;
78365;SDS011;67641;59.864;30.464;2023-08-08T14:52:05;9.50;;;1.60;;
78365;SDS011;67641;59.864;30.464;2023-08-08T14:54:53;8.88;;;1.70;;
78365;SDS011;67641;59.864;30.464;2023-08-08T15:00:43;10.05;;;1.98;;
78365;SDS011;67641;59.864;30.464;2023-08-08T15:03:10;12.25;;;2.00;;
78365;SDS011;67641;59.864;30.464;2023-08-08T15:05:45;6.13;;;1.85;;
78365;SDS011;67641;59.864;30.464;2023-08-08T15:11:01;8.88;;;2.10;;
78365;SDS011;67641;59.864;30.464;2023-08-08T15:13:28;5.82;;;1.80;;
78365;SDS011;67641;59.864;30.464;2023-08-08T15:15:55;8.77;;;2.20;;
78365;SDS011;67641;59.864;30.464;2023-08-08T15:18:22;11.45;;;2.00;;
78365;SDS011;67641;59.864;30.464;2023-08-08T15:21:04;8.75;;;1.88;;
78365;SDS011;67641;59.864;30.464;2023-08-08T15:27:17;10.63;;;2.13;;
78365;SDS011;67641;59.864;30.464;2023-08-08T15:29:44;9.95;;;1.88;;
78365;SDS011;67641;59.864;30.464;2023-08-08T15:34:38;6.32;;;1.65;;
78365;SDS011;67641;59.864;30.464;2023-08-08T15:59:18;7.78;;;1.70;;
78365;SDS011;67641;59.864;30.464;2023-08-08T16:01:56;8.45;;;1.60;;
78365;SDS011;67641;59.864;30.464;2023-08-08T16:04:23;5.88;;;1.70;;
78365;SDS011;67641;59.864;30.464;2023-08-08T16:29:14;10.57;;;1.65;;
78365;SDS011;67641;59.864;30.464;2023-08-08T16:31:44;6.43;;;1.63;;
78365;SDS011;67641;59.864;30.464;2023-08-08T16:34:31;7.30;;;1.80;;
78365;SDS011;67641;59.864;30.464;2023-08-08T16:38:10;6.10;;;1.92;;
78365;SDS011;67641;59.864;30.464;2023-08-08T16:40:38;9.52;;;2.50;;
78365;SDS011;67641;59.864;30.464;2023-08-08T16:43:05;8.07;;;2.13;;
78365;SDS011;67641;59.864;30.464;2023-08-08T16:45:32;9.55;;;2.10;;
78365;SDS011;67641;59.864;30.464;2023-08-08T16:47:59;10.68;;;2.10;;
78365;SDS011;67641;59.864;30.464;2023-08-08T16:50:38;10.18;;;2.20;;
78365;SDS011;67641;59.864;30.464;2023-08-08T16:53:05;10.95;;;2.20;;
78365;SDS011;67641;59.864;30.464;2023-08-08T16:55:33;11.90;;;2.22;;
78365;SDS011;67641;59.864;30.464;2023-08-08T17:00:38;9.68;;;1.98;;
78365;SDS011;67641;59.864;30.464;2023-08-08T17:03:23;10.25;;;2.42;;
78365;SDS011;67641;59.864;30.464;2023-08-08T17:06:04;6.47;;;1.92;;
78365;SDS011;67641;59.864;30.464;2023-08-08T17:08:53;9.85;;;2.28;;
78365;SDS011;67641;59.864;30.464;2023-08-08T17:11:28;10.45;;;2.72;;
78365;SDS011;67641;59.864;30.464;2023-08-08T17:13:55;7.32;;;2.10;;
78365;SDS011;67641;59.864;30.464;2023-08-08T17:16:56;9.15;;;2.20;;
78365;SDS011;67641;59.864;30.464;2023-08-08T17:42:50;8.27;;;1.92;;
78365;SDS011;67641;59.864;30.464;2023-08-08T17:45:17;12.63;;;2.40;;
78365;SDS011;67641;59.864;30.464;2023-08-08T17:47:43;12.82;;;2.30;;
78365;SDS011;67641;59.864;30.464;2023-08-08T17:50:11;9.13;;;2.28;;
78365;SDS011;67641;59.864;30.464;2023-08-08T17:52:37;8.45;;;2.15;;
78365;SDS011;67641;59.864;30.464;2023-08-08T17:55:04;11.25;;;2.33;;
78365;SDS011;67641;59.864;30.464;2023-08-08T17:57:31;8.55;;;2.72;;
78365;SDS011;67641;59.864;30.464;2023-08-08T17:59:57;7.40;;;2.20;;
78365;SDS011;67641;59.864;30.464;2023-08-08T18:04:30;9.45;;;2.65;;
78365;SDS011;67641;59.864;30.464;2023-08-08T18:07:04;9.65;;;3.13;;
78365;SDS011;67641;59.864;30.464;2023-08-08T18:09:30;10.00;;;3.13;;
78365;SDS011;67641;59.864;30.464;2023-08-08T18:11:57;9.60;;;3.45;;
78365;SDS011;67641;59.864;30.464;2023-08-08T18:14:23;9.80;;;2.97;;
78365;SDS011;67641;59.864;30.464;2023-08-08T18:16:50;9.63;;;2.88;;
78365;SDS011;67641;59.864;30.464;2023-08-08T18:19:16;7.53;;;2.63;;
78365;SDS011;67641;59.864;30.464;2023-08-08T18:21:44;8.88;;;2.72;;
78365;SDS011;67641;59.864;30.464;2023-08-08T18:26:08;9.48;;;2.88;;
78365;SDS011;67641;59.864;30.464;2023-08-08T18:28:36;8.00;;;2.97;;
78365;SDS011;67641;59.864;30.464;2023-08-08T18:31:02;7.40;;;2.65;;
78365;SDS011;67641;59.864;30.464;2023-08-08T18:33:31;12.27;;;2.83;;
78365;SDS011;67641;59.864;30.464;2023-08-08T18:36:04;9.50;;;3.00;;
78365;SDS011;67641;59.864;30.464;2023-08-08T18:38:31;10.80;;;2.80;;
78365;SDS011;67641;59.864;30.464;2023-08-08T20:09:03;10.40;;;2.88;;
78365;SDS011;67641;59.864;30.464;2023-08-08T20:40:04;6.60;;;2.45;;
78365;SDS011;67641;59.864;30.464;2023-08-08T20:42:32;7.70;;;2.50;;
78365;SDS011;67641;59.864;30.464;2023-08-08T20:44:59;6.13;;;2.17;;
78365;SDS011;67641;59.864;30.464;2023-08-08T20:47:26;7.53;;;2.35;;
78365;SDS011;67641;59.864;30.464;2023-08-08T20:49:54;8.38;;;2.90;;
78365;SDS011;67641;59.864;30.464;2023-08-08T20:52:20;6.63;;;2.20;;
78365;SDS011;67641;59.864;30.464;2023-08-08T20:54:48;6.25;;;2.58;;
78365;SDS011;67641;59.864;30.464;2023-08-08T20:57:52;6.68;;;2.40;;
78365;SDS011;67641;59.864;30.464;2023-08-08T21:00:20;5.95;;;2.28;;
78365;SDS011;67641;59.864;30.464;2023-08-08T21:24:25;8.25;;;2.92;;
78365;SDS011;67641;59.864;30.464;2023-08-08T21:26:52;10.25;;;2.47;;
78365;SDS011;67641;59.864;30.464;2023-08-08T21:29:18;6.03;;;2.38;;
78365;SDS011;67641;59.864;30.464;2023-08-08T21:31:45;6.85;;;2.65;;
78365;SDS011;67641;59.864;30.464;2023-08-08T21:55:49;8.02;;;2.63;;
78365;SDS011;67641;59.864;30.464;2023-08-08T22:00:44;8.68;;;2.10;;
78365;SDS011;67641;59.864;30.464;2023-08-08T22:03:10;6.53;;;2.10;;
78365;SDS011;67641;59.864;30.464;2023-08-08T22:05:37;10.52;;;2.28;;
78365;SDS011;67641;59.864;30.464;2023-08-08T22:08:04;10.82;;;2.53;;
78365;SDS011;67641;59.864;30.464;2023-08-08T22:10:30;9.65;;;2.28;;
78365;SDS011;67641;59.864;30.464;2023-08-08T22:35:09;6.97;;;2.05;;
78365;SDS011;67641;59.864;30.464;2023-08-08T22:37:35;5.78;;;2.00;;
78365;SDS011;67641;59.864;30.464;2023-08-08T22:40:02;9.63;;;1.80;;
78365;SDS011;67641;59.864;30.464;2023-08-08T22:42:48;6.32;;;2.30;;
78365;SDS011;67641;59.864;30.464;2023-08-08T22:45:17;5.90;;;2.10;;
78365;SDS011;67641;59.864;30.464;2023-08-08T23:09:55;5.90;;;2.42;;
78365;SDS011;67641;59.864;30.464;2023-08-08T23:12:22;8.07;;;2.60;;
78365;SDS011;67641;59.864;30.464;2023-08-08T23:14:48;8.02;;;2.60;;
78365;SDS011;67641;59.864;30.464;2023-08-08T23:17:15;6.88;;;2.45;;
78365;SDS011;67641;59.864;30.464;2023-08-08T23:19:42;6.32;;;2.30;;
78365;SDS011;67641;59.864;30.464;2023-08-08T23:24:41;7.25;;;2.08;;
78365;SDS011;67641;59.864;30.464;2023-08-08T23:27:08;6.38;;;2.22;;
78365;SDS011;67641;59.864;30.464;2023-08-08T23:29:35;9.07;;;2.35;;
78365;SDS011;67641;59.864;30.464;2023-08-08T23:32:02;7.47;;;2.10;;
78365;SDS011;67641;59.864;30.464;2023-08-08T23:34:29;9.13;;;2.60;;
78365;SDS011;67641;59.864;30.464;2023-08-08T23:36:56;7.07;;;3.03;;
78365;SDS011;67641;59.864;30.464;2023-08-08T23:39:22;6.95;;;2.38;;
78365;SDS011;67641;59.864;30.464;2023-08-08T23:41:49;8.30;;;2.28;;
78365;SDS011;67641;59.864;30.464;2023-08-08T23:46:33;6.80;;;2.78;;
78365;SDS011;67641;59.864;30.464;2023-08-08T23:48:59;7.38;;;2.28;;
78365;SDS011;67641;59.864;30.464;2023-08-08T23:51:26;8.32;;;2.58;;
78365;SDS011;67641;59.864;30.464;2023-08-08T23:53:53;8.00;;;2.45;;
78365;SDS011;67641;59.864;30.464;2023-08-08T23:56:20;8.10;;;2.78;;
78365;SDS011;67641;59.864;30.464;2023-08-08T23:58:46;5.97;;;2.10;;
